createdAt,value
2019-04-27T00:01:24.845Z,16.93
2019-04-27T00:04:27.333Z,16.90
2019-04-27T00:07:07.173Z,17.07
2019-04-27T00:09:50.223Z,16.75
2019-04-27T00:12:24.747Z,16.80
2019-04-27T00:14:58.143Z,16.30
2019-04-27T00:17:49.700Z,16.07
2019-04-27T00:20:43.385Z,15.80
2019-04-27T00:23:23.598Z,16.23
2019-04-27T00:25:58.067Z,16.42
2019-04-27T00:28:33.207Z,16.57
2019-04-27T00:31:07.708Z,16.15
2019-04-27T00:33:43.447Z,16.57
2019-04-27T00:36:35.229Z,16.42
2019-04-27T00:39:29.108Z,16.50
2019-04-27T00:42:03.824Z,16.12
2019-04-27T00:44:38.401Z,15.50
2019-04-27T00:47:13.782Z,16.02
2019-04-27T00:49:48.152Z,16.73
2019-04-27T00:52:24.023Z,17.05
2019-04-27T00:54:58.999Z,16.97
2019-04-27T00:57:55.120Z,16.45
2019-04-27T01:01:04.103Z,16.17
2019-04-27T01:03:43.376Z,16.30
2019-04-27T01:06:17.915Z,15.48
2019-04-27T01:08:53.205Z,16.07
2019-04-27T01:11:27.854Z,16.40
2019-04-27T01:14:03.894Z,16.52
2019-04-27T01:16:39.189Z,16.45
2019-04-27T01:19:14.016Z,17.98
2019-04-27T01:21:49.651Z,17.32
2019-04-27T01:24:23.842Z,17.57
2019-04-27T01:27:23.174Z,17.92
2019-04-27T01:29:58.819Z,17.95
2019-04-27T01:32:34.021Z,18.00
2019-04-27T01:35:08.713Z,18.40
2019-04-27T01:37:43.921Z,18.87
2019-04-27T01:40:19.349Z,19.27
2019-04-27T01:42:54.504Z,18.92
2019-04-27T01:45:29.125Z,18.92
2019-04-27T01:48:03.601Z,19.55
2019-04-27T01:50:39.192Z,20.27
2019-04-27T01:53:14.090Z,19.62
2019-04-27T01:55:49.120Z,20.20
2019-04-27T01:58:24.135Z,19.80
2019-04-27T02:01:26.076Z,20.23
2019-04-27T02:04:22.804Z,19.87
2019-04-27T02:06:59.244Z,21.05
2019-04-27T02:09:34.631Z,20.35
2019-04-27T02:12:09.417Z,21.70
2019-04-27T02:14:44.712Z,20.17
2019-04-27T02:17:19.310Z,21.12
2019-04-27T02:19:54.508Z,20.40
2019-04-27T02:22:29.677Z,20.60
2019-04-27T02:25:04.816Z,20.62
2019-04-27T02:27:40.984Z,21.75
2019-04-27T02:30:52.278Z,19.67
2019-04-27T02:33:34.262Z,19.60
2019-04-27T02:36:14.599Z,19.87
2019-04-27T02:38:44.746Z,20.85
2019-04-27T02:41:19.890Z,19.92
2019-04-27T02:44:01.726Z,19.85
2019-04-27T02:46:36.125Z,20.30
2019-04-27T02:49:10.815Z,20.70
2019-04-27T02:52:06.129Z,20.00
2019-04-27T02:54:40.430Z,19.57
2019-04-27T02:57:14.781Z,19.50
2019-04-27T02:59:50.273Z,20.27
2019-04-27T03:02:34.250Z,19.00
2019-04-27T03:05:12.690Z,19.55
2019-04-27T03:07:44.976Z,18.98
2019-04-27T03:10:19.975Z,20.35
2019-04-27T03:13:23.700Z,19.32
2019-04-27T03:16:32.095Z,19.45
2019-04-27T03:19:34.364Z,19.07
2019-04-27T03:22:29.565Z,19.75
2019-04-27T03:25:30.350Z,18.23
2019-04-27T03:28:10.971Z,18.15
2019-04-27T03:30:45.987Z,18.60
2019-04-27T03:33:22.309Z,18.82
2019-04-27T03:35:56.671Z,17.55
2019-04-27T03:38:30.962Z,18.30
2019-04-27T03:41:05.458Z,18.70
2019-04-27T03:43:40.364Z,18.70
2019-04-27T03:46:14.933Z,18.52
2019-04-27T03:48:49.817Z,18.67
2019-04-27T03:51:42.785Z,17.37
2019-04-27T03:54:22.458Z,18.40
2019-04-27T03:57:15.778Z,18.50
2019-04-27T04:00:00.311Z,18.37
2019-04-27T04:02:36.489Z,18.62
2019-04-27T04:05:10.833Z,18.52
2019-04-27T04:07:45.241Z,18.10
2019-04-27T04:10:20.100Z,17.95
2019-04-27T04:13:02.778Z,18.10
2019-04-27T04:18:25.898Z,17.82
2019-04-27T04:21:00.570Z,17.73
2019-04-27T04:23:34.967Z,18.27
2019-04-27T04:26:09.851Z,18.10
2019-04-27T04:28:44.143Z,19.65
2019-04-27T04:31:20.783Z,21.20
2019-04-27T04:33:55.157Z,21.17
2019-04-27T04:36:30.297Z,21.90
2019-04-27T04:39:19.836Z,21.52
2019-04-27T04:42:10.354Z,22.98
2019-04-27T04:45:21.625Z,23.90
2019-04-27T04:52:42.480Z,23.75
2019-04-27T04:55:16.547Z,23.62
2019-04-27T04:57:50.787Z,21.80
2019-04-27T05:00:25.344Z,33.58
2019-04-27T05:02:59.832Z,28.67
2019-04-27T05:05:34.340Z,27.93
2019-04-27T05:08:09.218Z,26.95
2019-04-27T05:10:43.702Z,27.05
2019-04-27T05:13:19.329Z,26.30
2019-04-27T05:15:53.766Z,26.52
2019-04-27T05:18:29.298Z,24.30
2019-04-27T05:21:09.369Z,23.77
2019-04-27T05:23:43.588Z,22.93
2019-04-27T05:26:18.997Z,23.35
2019-04-27T05:28:54.213Z,22.45
2019-04-27T05:31:29.400Z,20.97
2019-04-27T05:34:06.704Z,20.57
2019-04-27T05:36:48.393Z,22.80
2019-04-27T05:39:18.023Z,20.55
2019-04-27T05:41:52.808Z,19.92
2019-04-27T05:44:48.858Z,20.62
2019-04-27T05:47:48.433Z,18.70
2019-04-27T05:50:22.066Z,19.73
2019-04-27T05:52:59.708Z,18.90
2019-04-27T05:55:34.595Z,18.60
2019-04-27T05:58:09.397Z,17.30
2019-04-27T06:00:44.281Z,18.15
2019-04-27T06:03:20.859Z,16.90
2019-04-27T06:05:54.799Z,16.65
2019-04-27T06:08:29.512Z,18.45
2019-04-27T06:11:03.832Z,16.82
2019-04-27T06:13:39.233Z,15.93
2019-04-27T06:16:13.798Z,16.12
2019-04-27T06:18:49.309Z,15.50
2019-04-27T06:21:23.735Z,15.38
2019-04-27T06:23:58.863Z,15.40
2019-04-27T06:26:33.366Z,16.37
2019-04-27T06:29:09.525Z,15.28
2019-04-27T06:31:44.683Z,15.98
2019-04-27T06:34:19.537Z,15.35
2019-04-27T06:36:53.705Z,15.98
2019-04-27T06:39:29.922Z,14.63
2019-04-27T06:42:15.931Z,14.93
2019-04-27T06:44:40.862Z,14.80
2019-04-27T06:47:15.678Z,14.28
2019-04-27T06:49:50.907Z,14.63
2019-04-27T06:52:25.190Z,14.83
2019-04-27T06:55:00.596Z,14.10
2019-04-27T06:57:35.271Z,14.63
2019-04-27T07:00:10.336Z,15.20
2019-04-27T07:02:45.584Z,14.90
2019-04-27T07:05:20.529Z,15.58
2019-04-27T07:07:55.271Z,16.70
2019-04-27T07:10:30.113Z,15.85
2019-04-27T07:13:04.456Z,15.05
2019-04-27T07:15:40.061Z,13.72
2019-04-27T07:18:14.474Z,15.25
2019-04-27T07:20:49.290Z,13.88
2019-04-27T07:23:23.478Z,14.00
2019-04-27T07:25:59.828Z,13.83
2019-04-27T07:28:34.883Z,13.75
2019-04-27T07:31:10.478Z,14.10
2019-04-27T07:34:10.485Z,13.68
2019-04-27T07:36:55.223Z,13.13
2019-04-27T07:39:34.410Z,13.38
2019-04-27T07:42:09.131Z,13.15
2019-04-27T07:44:51.501Z,12.50
2019-04-27T07:50:09.589Z,13.50
2019-04-27T07:52:44.388Z,12.10
2019-04-27T07:55:18.837Z,12.70
2019-04-27T07:57:56.184Z,12.45
2019-04-27T08:00:30.740Z,12.33
2019-04-27T08:03:05.838Z,12.47
2019-04-27T08:05:40.505Z,13.20
2019-04-27T08:08:15.968Z,12.45
2019-04-27T08:10:54.649Z,12.07
2019-04-27T08:13:29.435Z,11.63
2019-04-27T08:16:04.500Z,11.12
2019-04-27T08:18:39.709Z,11.70
2019-04-27T08:21:14.437Z,12.30
2019-04-27T08:23:49.115Z,12.45
2019-04-27T08:26:37.177Z,12.43
2019-04-27T08:29:25.628Z,11.85
2019-04-27T08:32:07.313Z,11.83
2019-04-27T08:34:43.429Z,11.57
2019-04-27T08:37:19.565Z,10.23
2019-04-27T08:39:56.153Z,11.73
2019-04-27T08:42:32.013Z,10.63
2019-04-27T08:45:09.428Z,10.80
2019-04-27T08:47:45.474Z,10.68
2019-04-27T08:50:21.595Z,10.23
2019-04-27T08:52:57.718Z,10.63
2019-04-27T08:55:35.142Z,10.30
2019-04-27T08:58:11.392Z,10.32
2019-04-27T09:00:49.063Z,10.13
2019-04-27T09:03:25.897Z,9.18
2019-04-27T09:06:04.079Z,8.78
2019-04-27T09:08:46.740Z,8.53
2019-04-27T09:14:24.981Z,7.95
2019-04-27T09:17:29.179Z,7.72
2019-04-27T09:20:25.361Z,6.67
2019-04-27T09:23:01.374Z,7.35
2019-04-27T09:25:41.038Z,6.45
2019-04-27T09:28:20.171Z,7.62
2019-04-27T09:30:58.232Z,6.40
2019-04-27T09:33:34.978Z,6.85
2019-04-27T09:36:16.664Z,6.65
2019-04-27T09:38:50.277Z,6.58
2019-04-27T09:41:26.178Z,6.30
2019-04-27T09:44:02.574Z,6.22
2019-04-27T09:46:37.261Z,5.92
2019-04-27T09:49:12.176Z,5.85
2019-04-27T09:51:49.785Z,6.03
2019-04-27T09:54:24.016Z,5.62
2019-04-27T09:56:59.809Z,5.55
2019-04-27T09:59:34.348Z,5.58
2019-04-27T10:02:09.259Z,6.03
2019-04-27T10:04:43.321Z,6.35
2019-04-27T10:07:17.774Z,5.97
2019-04-27T10:09:52.511Z,5.97
2019-04-27T10:12:27.319Z,6.17
2019-04-27T10:15:03.028Z,5.87
2019-04-27T10:17:45.554Z,5.90
2019-04-27T10:20:20.240Z,5.80
2019-04-27T10:22:56.431Z,6.00
2019-04-27T10:25:30.982Z,6.53
2019-04-27T10:28:06.757Z,6.50
2019-04-27T10:30:41.295Z,5.97
2019-04-27T10:33:16.155Z,5.55
2019-04-27T10:35:50.667Z,6.25
2019-04-27T10:38:25.902Z,6.12
2019-04-27T10:41:00.643Z,5.35
2019-04-27T10:43:34.868Z,5.45
2019-04-27T10:46:09.010Z,5.62
2019-04-27T10:48:43.414Z,5.17
2019-04-27T10:51:17.829Z,5.12
2019-04-27T10:53:52.197Z,5.08
2019-04-27T10:56:27.372Z,5.35
2019-04-27T10:59:01.507Z,5.53
2019-04-27T11:01:36.526Z,5.87
2019-04-27T11:04:32.525Z,5.47
2019-04-27T11:07:12.071Z,5.70
2019-04-27T11:09:46.850Z,5.20
2019-04-27T11:12:21.028Z,5.35
2019-04-27T11:14:55.177Z,4.55
2019-04-27T11:17:29.552Z,5.60
2019-04-27T11:20:03.907Z,5.03
2019-04-27T11:22:38.378Z,5.28
2019-04-27T11:25:13.120Z,5.30
2019-04-27T11:27:47.434Z,4.95
2019-04-27T11:30:21.997Z,5.45
2019-04-27T11:32:58.985Z,4.83
2019-04-27T11:35:47.673Z,4.80
2019-04-27T11:38:22.316Z,5.58
2019-04-27T11:40:56.763Z,4.87
2019-04-27T11:43:31.225Z,5.67
2019-04-27T11:46:06.190Z,4.87
2019-04-27T11:48:40.705Z,5.58
2019-04-27T11:51:17.285Z,5.12
2019-04-27T11:53:51.628Z,5.50
2019-04-27T11:56:27.428Z,5.25
2019-04-27T11:59:01.971Z,5.15
2019-04-27T12:01:36.458Z,4.75
2019-04-27T12:04:10.827Z,4.85
2019-04-27T12:06:46.274Z,4.92
2019-04-27T12:09:20.760Z,5.17
2019-04-27T12:11:57.488Z,5.10
2019-04-27T12:14:31.721Z,5.08
2019-04-27T12:17:06.417Z,5.10
2019-04-27T12:19:40.518Z,5.12
2019-04-27T12:22:16.374Z,5.20
2019-04-27T12:24:51.344Z,4.75
2019-04-27T12:27:46.292Z,5.20
2019-04-27T12:30:26.217Z,5.33
2019-04-27T12:33:00.831Z,5.05
2019-04-27T12:35:36.858Z,5.08
2019-04-27T12:38:11.917Z,4.90
2019-04-27T12:40:46.633Z,5.55
2019-04-27T12:43:20.801Z,4.85
2019-04-27T12:45:55.954Z,5.20
2019-04-27T12:48:30.319Z,4.87
2019-04-27T12:51:04.584Z,5.65
2019-04-27T12:54:55.164Z,5.60
2019-04-27T12:57:47.934Z,5.73
2019-04-27T13:03:08.743Z,5.10
2019-04-27T13:05:43.046Z,5.33
2019-04-27T13:08:17.285Z,6.43
2019-04-27T13:10:51.434Z,5.37
2019-04-27T13:13:26.694Z,5.67
2019-04-27T13:16:01.217Z,6.50
2019-04-27T13:18:36.049Z,6.58
2019-04-27T13:21:10.482Z,6.47
2019-04-27T13:23:45.820Z,7.42
2019-04-27T13:26:20.375Z,7.60
2019-04-27T13:28:54.774Z,8.05
2019-04-27T13:31:29.120Z,8.20
2019-04-27T13:34:03.383Z,7.40
2019-04-27T13:36:37.580Z,7.55
2019-04-27T13:39:11.903Z,8.08
2019-04-27T13:41:46.437Z,8.00
2019-04-27T13:44:20.712Z,8.35
2019-04-27T13:48:57.306Z,7.80
2019-04-27T13:51:37.208Z,7.65
2019-04-27T13:54:18.905Z,7.83
2019-04-27T13:56:47.789Z,8.08
2019-04-27T13:59:21.953Z,8.73
2019-04-27T14:01:56.419Z,8.18
2019-04-27T14:09:41.935Z,7.50
2019-04-27T14:32:04.650Z,8.53
2019-04-27T14:34:40.082Z,8.47
2019-04-27T14:37:14.452Z,9.13
2019-04-27T14:39:48.447Z,8.98
2019-04-27T14:42:23.045Z,9.23
2019-04-27T14:44:58.799Z,9.53
2019-04-27T14:47:33.459Z,9.50
2019-04-27T14:50:08.887Z,9.53
2019-04-27T14:52:43.372Z,9.80
2019-04-27T14:55:17.689Z,9.33
2019-04-27T14:57:51.863Z,10.05
2019-04-27T15:00:26.310Z,10.03
2019-04-27T15:03:00.698Z,10.40
2019-04-27T15:05:34.892Z,10.88
2019-04-27T15:08:17.771Z,10.43
2019-04-27T15:10:53.825Z,10.25
2019-04-27T15:13:28.246Z,11.08
2019-04-27T15:16:06.657Z,11.75
2019-04-27T15:18:43.796Z,11.65
2019-04-27T15:21:20.100Z,12.30
2019-04-27T15:23:54.723Z,11.63
2019-04-27T15:26:30.776Z,12.90
2019-04-27T15:29:06.930Z,12.43
2019-04-27T15:31:45.870Z,12.25
2019-04-27T15:34:45.171Z,13.25
2019-04-27T15:37:28.104Z,14.10
2019-04-27T15:40:26.357Z,13.10
2019-04-27T15:43:04.298Z,13.70
2019-04-27T15:45:39.297Z,13.72
2019-04-27T15:48:13.851Z,13.85
2019-04-27T15:50:48.378Z,13.55
2019-04-27T15:53:22.490Z,14.40
2019-04-27T15:56:00.008Z,15.58
2019-04-27T15:58:32.588Z,14.55
2019-04-27T16:01:11.269Z,14.65
2019-04-27T16:03:44.070Z,12.85
2019-04-27T16:06:19.070Z,14.30
2019-04-27T16:08:54.037Z,13.43
2019-04-27T16:11:28.396Z,13.10
2019-04-27T16:14:06.358Z,11.95
2019-04-27T16:16:40.419Z,13.95
2019-04-27T16:19:15.475Z,12.53
2019-04-27T16:21:54.040Z,13.32
2019-04-27T16:25:44.960Z,12.68
2019-04-27T16:28:09.777Z,12.43
2019-04-27T16:30:45.751Z,11.85
2019-04-27T16:33:23.534Z,11.10
2019-04-27T16:36:00.351Z,10.63
2019-04-27T16:38:54.698Z,11.03
2019-04-27T16:41:32.990Z,10.95
2019-04-27T16:44:06.935Z,10.35
